Lebanon, New York
Current Conditions -  °F | °C
As of 12:06 AM on Sunday 26 Oct 2014 (Local Time) from KRME Reporting Station
Thunderstorm Thunderstorm  
Wind Chill: 44°   Ceiling: 4900
Heat Index: 48°   Visibility: 4mi
Dew Point: 48°   Wind: 8mph
Humidity: 100%   Direction: 330°NNW
Pressure: 29.54"   Gusts: NA
Location:  42.7586°N, 75.5621°W
Report Text: KRME 260406Z AUTO 33007KT 4SM VCTS -RA BR BKN049 OVC065 09/09 A2954 RMK AO2 LTG DSNT E-SW TSE00 P0002 T00890089
Loading
Personal Weather Stations






























Interactive Weather Map
Tropical Storm Tracking
New forecast layout! Learn more

10-Day Weather Forecast

Advertisements
Track Severe Weather on mobile